sensor_id;sensor_type;location;lat;lon;timestamp;P1;durP1;ratioP1;P2;durP2;ratioP2
38358;SDS011;42072;48.044;14.416;2023-03-20T00:02:20;28.50;;;17.52;;
38358;SDS011;42072;48.044;14.416;2023-03-20T00:04:49;29.90;;;18.52;;
38358;SDS011;42072;48.044;14.416;2023-03-20T00:07:17;24.70;;;18.05;;
38358;SDS011;42072;48.044;14.416;2023-03-20T00:09:44;26.75;;;16.83;;
38358;SDS011;42072;48.044;14.416;2023-03-20T00:12:15;24.83;;;16.42;;
38358;SDS011;42072;48.044;14.416;2023-03-20T00:14:49;28.67;;;16.95;;
38358;SDS011;42072;48.044;14.416;2023-03-20T00:17:18;24.27;;;16.63;;
38358;SDS011;42072;48.044;14.416;2023-03-20T00:19:46;23.38;;;16.38;;
38358;SDS011;42072;48.044;14.416;2023-03-20T00:22:13;23.25;;;15.73;;
38358;SDS011;42072;48.044;14.416;2023-03-20T00:24:41;27.42;;;16.77;;
38358;SDS011;42072;48.044;14.416;2023-03-20T00:27:11;25.77;;;16.33;;
38358;SDS011;42072;48.044;14.416;2023-03-20T00:29:41;24.70;;;15.50;;
38358;SDS011;42072;48.044;14.416;2023-03-20T00:32:12;22.88;;;16.33;;
38358;SDS011;42072;48.044;14.416;2023-03-20T00:34:40;22.67;;;15.88;;
38358;SDS011;42072;48.044;14.416;2023-03-20T00:37:08;22.30;;;15.73;;
38358;SDS011;42072;48.044;14.416;2023-03-20T00:39:39;22.20;;;15.50;;
38358;SDS011;42072;48.044;14.416;2023-03-20T00:42:18;25.92;;;16.50;;
38358;SDS011;42072;48.044;14.416;2023-03-20T00:44:51;23.92;;;15.55;;
38358;SDS011;42072;48.044;14.416;2023-03-20T00:47:21;23.42;;;15.13;;
38358;SDS011;42072;48.044;14.416;2023-03-20T00:49:50;23.67;;;15.52;;
38358;SDS011;42072;48.044;14.416;2023-03-20T00:52:20;24.10;;;16.08;;
38358;SDS011;42072;48.044;14.416;2023-03-20T00:54:48;20.48;;;14.35;;
38358;SDS011;42072;48.044;14.416;2023-03-20T00:57:25;25.58;;;14.95;;
38358;SDS011;42072;48.044;14.416;2023-03-20T01:00:03;23.02;;;15.55;;
38358;SDS011;42072;48.044;14.416;2023-03-20T01:02:34;21.80;;;15.52;;
38358;SDS011;42072;48.044;14.416;2023-03-20T01:05:01;21.73;;;15.07;;
38358;SDS011;42072;48.044;14.416;2023-03-20T01:07:30;28.17;;;17.92;;
38358;SDS011;42072;48.044;14.416;2023-03-20T01:09:58;29.92;;;17.58;;
38358;SDS011;42072;48.044;14.416;2023-03-20T01:12:25;27.13;;;17.27;;
38358;SDS011;42072;48.044;14.416;2023-03-20T01:14:54;28.83;;;18.13;;
38358;SDS011;42072;48.044;14.416;2023-03-20T01:17:24;25.88;;;17.67;;
38358;SDS011;42072;48.044;14.416;2023-03-20T01:19:53;26.50;;;17.52;;
38358;SDS011;42072;48.044;14.416;2023-03-20T01:22:20;27.00;;;17.90;;
38358;SDS011;42072;48.044;14.416;2023-03-20T01:24:47;27.25;;;18.25;;
38358;SDS011;42072;48.044;14.416;2023-03-20T01:27:15;24.13;;;17.38;;
38358;SDS011;42072;48.044;14.416;2023-03-20T01:29:44;28.30;;;17.00;;
38358;SDS011;42072;48.044;14.416;2023-03-20T01:32:14;29.48;;;17.98;;
38358;SDS011;42072;48.044;14.416;2023-03-20T01:34:43;30.48;;;18.38;;
38358;SDS011;42072;48.044;14.416;2023-03-20T01:37:11;25.83;;;17.75;;
38358;SDS011;42072;48.044;14.416;2023-03-20T01:39:42;29.88;;;17.77;;
38358;SDS011;42072;48.044;14.416;2023-03-20T01:42:10;24.77;;;16.80;;
38358;SDS011;42072;48.044;14.416;2023-03-20T01:44:41;25.15;;;17.20;;
38358;SDS011;42072;48.044;14.416;2023-03-20T01:47:29;24.10;;;17.65;;
38358;SDS011;42072;48.044;14.416;2023-03-20T01:53:09;24.38;;;17.08;;
38358;SDS011;42072;48.044;14.416;2023-03-20T01:55:41;22.90;;;16.45;;
38358;SDS011;42072;48.044;14.416;2023-03-20T01:58:21;25.83;;;16.38;;
38358;SDS011;42072;48.044;14.416;2023-03-20T02:00:53;22.95;;;16.55;;
38358;SDS011;42072;48.044;14.416;2023-03-20T02:03:21;25.70;;;16.75;;
38358;SDS011;42072;48.044;14.416;2023-03-20T02:05:49;27.48;;;16.55;;
38358;SDS011;42072;48.044;14.416;2023-03-20T02:08:24;23.23;;;16.58;;
38358;SDS011;42072;48.044;14.416;2023-03-20T02:10:54;25.60;;;15.73;;
38358;SDS011;42072;48.044;14.416;2023-03-20T02:13:28;22.08;;;15.48;;
38358;SDS011;42072;48.044;14.416;2023-03-20T02:16:02;20.05;;;14.95;;
38358;SDS011;42072;48.044;14.416;2023-03-20T02:18:36;22.92;;;15.40;;
38358;SDS011;42072;48.044;14.416;2023-03-20T02:23:52;21.50;;;14.38;;
38358;SDS011;42072;48.044;14.416;2023-03-20T02:38:03;22.98;;;15.40;;
38358;SDS011;42072;48.044;14.416;2023-03-20T02:41:02;21.55;;;14.75;;
38358;SDS011;42072;48.044;14.416;2023-03-20T02:43:58;23.45;;;15.18;;
38358;SDS011;42072;48.044;14.416;2023-03-20T02:46:45;21.90;;;14.98;;
38358;SDS011;42072;48.044;14.416;2023-03-20T02:52:17;22.65;;;15.85;;
38358;SDS011;42072;48.044;14.416;2023-03-20T03:00:35;24.10;;;16.73;;
38358;SDS011;42072;48.044;14.416;2023-03-20T03:08:30;28.60;;;17.42;;
38358;SDS011;42072;48.044;14.416;2023-03-20T03:11:06;26.67;;;16.70;;
38358;SDS011;42072;48.044;14.416;2023-03-20T03:13:35;25.60;;;17.13;;
38358;SDS011;42072;48.044;14.416;2023-03-20T03:16:26;26.23;;;15.30;;
38358;SDS011;42072;48.044;14.416;2023-03-20T03:19:13;23.95;;;15.30;;
38358;SDS011;42072;48.044;14.416;2023-03-20T03:21:46;23.48;;;15.02;;
38358;SDS011;42072;48.044;14.416;2023-03-20T03:29:55;20.35;;;14.15;;
38358;SDS011;42072;48.044;14.416;2023-03-20T03:32:33;18.38;;;13.57;;
38358;SDS011;42072;48.044;14.416;2023-03-20T03:35:03;20.52;;;13.68;;
38358;SDS011;42072;48.044;14.416;2023-03-20T03:43:51;19.73;;;13.30;;
38358;SDS011;42072;48.044;14.416;2023-03-20T03:46:24;16.38;;;12.38;;
38358;SDS011;42072;48.044;14.416;2023-03-20T03:49:32;20.23;;;13.48;;
38358;SDS011;42072;48.044;14.416;2023-03-20T03:52:04;20.23;;;13.40;;
38358;SDS011;42072;48.044;14.416;2023-03-20T03:54:39;16.98;;;13.75;;
38358;SDS011;42072;48.044;14.416;2023-03-20T03:57:34;21.08;;;13.35;;
38358;SDS011;42072;48.044;14.416;2023-03-20T04:02:34;18.30;;;13.40;;
38358;SDS011;42072;48.044;14.416;2023-03-20T04:05:01;16.38;;;12.50;;
38358;SDS011;42072;48.044;14.416;2023-03-20T04:07:31;22.38;;;13.27;;
38358;SDS011;42072;48.044;14.416;2023-03-20T04:09:58;19.80;;;13.77;;
38358;SDS011;42072;48.044;14.416;2023-03-20T04:14:55;20.60;;;13.38;;
38358;SDS011;42072;48.044;14.416;2023-03-20T04:17:22;17.85;;;12.80;;
38358;SDS011;42072;48.044;14.416;2023-03-20T04:19:49;21.50;;;14.40;;
38358;SDS011;42072;48.044;14.416;2023-03-20T04:22:16;22.85;;;14.32;;
38358;SDS011;42072;48.044;14.416;2023-03-20T04:24:44;22.50;;;14.57;;
38358;SDS011;42072;48.044;14.416;2023-03-20T04:27:11;21.00;;;15.10;;
38358;SDS011;42072;48.044;14.416;2023-03-20T04:29:38;18.88;;;13.82;;
38358;SDS011;42072;48.044;14.416;2023-03-20T04:32:06;20.80;;;14.60;;
38358;SDS011;42072;48.044;14.416;2023-03-20T04:34:33;23.88;;;14.85;;
38358;SDS011;42072;48.044;14.416;2023-03-20T04:37:00;19.08;;;14.43;;
38358;SDS011;42072;48.044;14.416;2023-03-20T04:39:27;18.17;;;14.20;;
38358;SDS011;42072;48.044;14.416;2023-03-20T04:41:54;21.10;;;14.10;;
38358;SDS011;42072;48.044;14.416;2023-03-20T04:44:21;19.48;;;14.10;;
38358;SDS011;42072;48.044;14.416;2023-03-20T04:46:49;20.13;;;14.10;;
38358;SDS011;42072;48.044;14.416;2023-03-20T04:49:16;18.85;;;14.25;;
38358;SDS011;42072;48.044;14.416;2023-03-20T04:51:43;21.30;;;13.93;;
38358;SDS011;42072;48.044;14.416;2023-03-20T04:54:10;20.70;;;14.75;;
38358;SDS011;42072;48.044;14.416;2023-03-20T04:56:37;21.38;;;14.57;;
38358;SDS011;42072;48.044;14.416;2023-03-20T04:59:04;19.75;;;14.05;;
38358;SDS011;42072;48.044;14.416;2023-03-20T05:01:31;19.65;;;14.57;;
38358;SDS011;42072;48.044;14.416;2023-03-20T05:03:59;18.58;;;14.48;;
38358;SDS011;42072;48.044;14.416;2023-03-20T05:06:27;20.67;;;15.02;;
38358;SDS011;42072;48.044;14.416;2023-03-20T05:08:54;19.55;;;14.65;;
38358;SDS011;42072;48.044;14.416;2023-03-20T05:11:21;18.90;;;14.27;;
38358;SDS011;42072;48.044;14.416;2023-03-20T05:13:49;18.80;;;14.57;;
38358;SDS011;42072;48.044;14.416;2023-03-20T05:16:16;20.00;;;14.43;;
38358;SDS011;42072;48.044;14.416;2023-03-20T05:18:43;20.52;;;14.73;;
38358;SDS011;42072;48.044;14.416;2023-03-20T05:21:10;23.27;;;15.07;;
38358;SDS011;42072;48.044;14.416;2023-03-20T05:23:38;22.20;;;15.23;;
38358;SDS011;42072;48.044;14.416;2023-03-20T05:26:05;24.05;;;14.88;;
38358;SDS011;42072;48.044;14.416;2023-03-20T05:28:33;26.13;;;17.95;;
38358;SDS011;42072;48.044;14.416;2023-03-20T05:31:00;23.35;;;16.00;;
38358;SDS011;42072;48.044;14.416;2023-03-20T05:33:27;21.70;;;15.38;;
38358;SDS011;42072;48.044;14.416;2023-03-20T05:35:54;20.38;;;15.23;;
38358;SDS011;42072;48.044;14.416;2023-03-20T05:38:21;43.60;;;21.90;;
38358;SDS011;42072;48.044;14.416;2023-03-20T05:40:49;22.70;;;15.90;;
38358;SDS011;42072;48.044;14.416;2023-03-20T05:43:16;20.65;;;15.18;;
38358;SDS011;42072;48.044;14.416;2023-03-20T05:45:43;23.52;;;15.52;;
38358;SDS011;42072;48.044;14.416;2023-03-20T05:48:11;22.00;;;15.35;;
38358;SDS011;42072;48.044;14.416;2023-03-20T05:50:38;21.38;;;14.50;;
38358;SDS011;42072;48.044;14.416;2023-03-20T05:53:05;23.27;;;15.25;;
38358;SDS011;42072;48.044;14.416;2023-03-20T05:55:33;20.30;;;14.40;;
38358;SDS011;42072;48.044;14.416;2023-03-20T05:58:01;20.00;;;15.15;;
38358;SDS011;42072;48.044;14.416;2023-03-20T06:00:28;21.92;;;15.20;;
38358;SDS011;42072;48.044;14.416;2023-03-20T06:02:55;19.55;;;14.82;;
38358;SDS011;42072;48.044;14.416;2023-03-20T06:05:22;21.55;;;16.30;;
38358;SDS011;42072;48.044;14.416;2023-03-20T06:07:52;18.73;;;14.43;;
38358;SDS011;42072;48.044;14.416;2023-03-20T06:10:19;21.80;;;14.50;;
38358;SDS011;42072;48.044;14.416;2023-03-20T06:12:46;21.58;;;15.90;;
38358;SDS011;42072;48.044;14.416;2023-03-20T06:15:13;20.23;;;15.52;;
38358;SDS011;42072;48.044;14.416;2023-03-20T06:17:41;21.20;;;15.32;;
38358;SDS011;42072;48.044;14.416;2023-03-20T06:20:08;19.70;;;14.88;;
38358;SDS011;42072;48.044;14.416;2023-03-20T06:22:36;20.10;;;14.70;;
38358;SDS011;42072;48.044;14.416;2023-03-20T06:25:03;17.42;;;13.80;;
38358;SDS011;42072;48.044;14.416;2023-03-20T06:27:32;18.55;;;14.55;;
38358;SDS011;42072;48.044;14.416;2023-03-20T06:30:00;17.90;;;13.77;;
38358;SDS011;42072;48.044;14.416;2023-03-20T06:32:27;19.50;;;13.35;;
38358;SDS011;42072;48.044;14.416;2023-03-20T06:34:54;20.27;;;13.32;;
38358;SDS011;42072;48.044;14.416;2023-03-20T06:37:21;16.85;;;13.77;;
38358;SDS011;42072;48.044;14.416;2023-03-20T06:39:48;18.35;;;14.30;;
38358;SDS011;42072;48.044;14.416;2023-03-20T06:42:16;21.98;;;13.95;;
38358;SDS011;42072;48.044;14.416;2023-03-20T06:44:44;21.30;;;13.38;;
38358;SDS011;42072;48.044;14.416;2023-03-20T06:47:11;16.55;;;13.43;;
38358;SDS011;42072;48.044;14.416;2023-03-20T06:49:38;20.35;;;14.25;;
38358;SDS011;42072;48.044;14.416;2023-03-20T06:52:05;17.92;;;12.38;;
38358;SDS011;42072;48.044;14.416;2023-03-20T06:54:33;17.52;;;12.25;;
38358;SDS011;42072;48.044;14.416;2023-03-20T06:57:00;18.23;;;13.30;;
38358;SDS011;42072;48.044;14.416;2023-03-20T06:59:27;13.57;;;10.65;;
38358;SDS011;42072;48.044;14.416;2023-03-20T07:01:54;13.68;;;10.27;;
38358;SDS011;42072;48.044;14.416;2023-03-20T07:04:22;16.17;;;11.20;;
38358;SDS011;42072;48.044;14.416;2023-03-20T07:06:49;12.75;;;9.70;;
38358;SDS011;42072;48.044;14.416;2023-03-20T07:09:16;12.13;;;8.88;;
38358;SDS011;42072;48.044;14.416;2023-03-20T07:11:43;10.65;;;8.85;;
38358;SDS011;42072;48.044;14.416;2023-03-20T07:14:11;11.38;;;8.82;;
38358;SDS011;42072;48.044;14.416;2023-03-20T07:16:38;11.18;;;9.23;;
38358;SDS011;42072;48.044;14.416;2023-03-20T07:19:06;12.82;;;9.40;;
38358;SDS011;42072;48.044;14.416;2023-03-20T07:21:33;13.48;;;8.98;;
38358;SDS011;42072;48.044;14.416;2023-03-20T07:24:00;13.10;;;9.65;;
38358;SDS011;42072;48.044;14.416;2023-03-20T07:26:27;13.30;;;9.35;;
38358;SDS011;42072;48.044;14.416;2023-03-20T07:28:55;11.38;;;8.73;;
38358;SDS011;42072;48.044;14.416;2023-03-20T07:31:24;14.50;;;8.68;;
38358;SDS011;42072;48.044;14.416;2023-03-20T07:33:52;11.43;;;9.50;;
38358;SDS011;42072;48.044;14.416;2023-03-20T07:36:20;9.73;;;8.20;;
38358;SDS011;42072;48.044;14.416;2023-03-20T07:38:48;9.23;;;7.88;;
38358;SDS011;42072;48.044;14.416;2023-03-20T07:41:15;9.57;;;8.13;;
38358;SDS011;42072;48.044;14.416;2023-03-20T07:43:42;11.50;;;8.90;;
38358;SDS011;42072;48.044;14.416;2023-03-20T07:46:10;13.55;;;8.52;;
38358;SDS011;42072;48.044;14.416;2023-03-20T07:48:37;12.18;;;8.35;;
38358;SDS011;42072;48.044;14.416;2023-03-20T07:51:04;13.60;;;8.73;;
38358;SDS011;42072;48.044;14.416;2023-03-20T07:53:31;10.38;;;7.78;;
38358;SDS011;42072;48.044;14.416;2023-03-20T07:55:59;7.63;;;6.68;;
38358;SDS011;42072;48.044;14.416;2023-03-20T07:58:26;10.40;;;7.45;;
38358;SDS011;42072;48.044;14.416;2023-03-20T08:00:55;9.73;;;7.35;;
38358;SDS011;42072;48.044;14.416;2023-03-20T08:03:24;9.45;;;7.07;;
38358;SDS011;42072;48.044;14.416;2023-03-20T08:05:51;9.75;;;7.25;;
38358;SDS011;42072;48.044;14.416;2023-03-20T08:08:20;8.00;;;6.70;;
38358;SDS011;42072;48.044;14.416;2023-03-20T08:10:48;9.38;;;6.97;;
38358;SDS011;42072;48.044;14.416;2023-03-20T08:13:15;8.75;;;6.80;;
38358;SDS011;42072;48.044;14.416;2023-03-20T08:15:42;9.40;;;7.03;;
38358;SDS011;42072;48.044;14.416;2023-03-20T08:18:09;8.70;;;7.03;;
38358;SDS011;42072;48.044;14.416;2023-03-20T08:20:36;8.68;;;7.07;;
38358;SDS011;42072;48.044;14.416;2023-03-20T08:23:03;10.30;;;6.80;;
38358;SDS011;42072;48.044;14.416;2023-03-20T08:25:30;9.70;;;7.30;;
38358;SDS011;42072;48.044;14.416;2023-03-20T08:27:59;9.82;;;7.22;;
38358;SDS011;42072;48.044;14.416;2023-03-20T08:30:27;11.13;;;6.80;;
38358;SDS011;42072;48.044;14.416;2023-03-20T08:32:54;9.77;;;7.65;;
38358;SDS011;42072;48.044;14.416;2023-03-20T08:35:24;9.30;;;7.32;;
38358;SDS011;42072;48.044;14.416;2023-03-20T08:38:11;9.90;;;7.35;;
38358;SDS011;42072;48.044;14.416;2023-03-20T08:40:39;10.98;;;7.25;;
38358;SDS011;42072;48.044;14.416;2023-03-20T08:43:07;10.05;;;6.55;;
38358;SDS011;42072;48.044;14.416;2023-03-20T08:45:34;10.18;;;7.30;;
38358;SDS011;42072;48.044;14.416;2023-03-20T08:48:02;10.10;;;7.32;;
38358;SDS011;42072;48.044;14.416;2023-03-20T08:50:30;12.00;;;8.68;;
38358;SDS011;42072;48.044;14.416;2023-03-20T08:52:58;13.70;;;8.77;;
38358;SDS011;42072;48.044;14.416;2023-03-20T08:55:26;15.02;;;8.07;;
38358;SDS011;42072;48.044;14.416;2023-03-20T08:57:53;12.98;;;8.88;;
38358;SDS011;42072;48.044;14.416;2023-03-20T09:00:23;11.57;;;7.70;;
38358;SDS011;42072;48.044;14.416;2023-03-20T09:02:50;11.52;;;8.65;;
38358;SDS011;42072;48.044;14.416;2023-03-20T09:05:17;11.73;;;7.95;;
38358;SDS011;42072;48.044;14.416;2023-03-20T09:07:44;9.07;;;7.45;;
38358;SDS011;42072;48.044;14.416;2023-03-20T09:10:12;11.35;;;8.50;;
38358;SDS011;42072;48.044;14.416;2023-03-20T09:12:39;10.73;;;9.13;;
38358;SDS011;42072;48.044;14.416;2023-03-20T09:15:06;9.18;;;7.32;;
38358;SDS011;42072;48.044;14.416;2023-03-20T09:17:34;8.70;;;7.70;;
38358;SDS011;42072;48.044;14.416;2023-03-20T09:20:02;12.15;;;8.00;;
38358;SDS011;42072;48.044;14.416;2023-03-20T09:22:32;7.45;;;6.65;;
38358;SDS011;42072;48.044;14.416;2023-03-20T09:24:59;9.95;;;7.68;;
38358;SDS011;42072;48.044;14.416;2023-03-20T09:27:26;10.13;;;6.93;;
38358;SDS011;42072;48.044;14.416;2023-03-20T09:29:54;7.60;;;6.43;;
38358;SDS011;42072;48.044;14.416;2023-03-20T09:32:22;7.50;;;6.50;;
38358;SDS011;42072;48.044;14.416;2023-03-20T09:34:49;7.57;;;6.75;;
38358;SDS011;42072;48.044;14.416;2023-03-20T09:37:17;7.22;;;6.53;;
38358;SDS011;42072;48.044;14.416;2023-03-20T09:39:44;9.15;;;7.00;;
38358;SDS011;42072;48.044;14.416;2023-03-20T09:42:24;7.22;;;6.28;;
38358;SDS011;42072;48.044;14.416;2023-03-20T09:53:40;7.95;;;6.20;;
38358;SDS011;42072;48.044;14.416;2023-03-20T09:56:14;7.25;;;6.13;;
38358;SDS011;42072;48.044;14.416;2023-03-20T09:58:54;6.90;;;5.85;;
38358;SDS011;42072;48.044;14.416;2023-03-20T10:01:25;7.72;;;6.53;;
38358;SDS011;42072;48.044;14.416;2023-03-20T10:03:57;7.05;;;6.00;;
38358;SDS011;42072;48.044;14.416;2023-03-20T10:06:27;6.78;;;5.75;;
38358;SDS011;42072;48.044;14.416;2023-03-20T10:08:54;6.63;;;5.88;;
38358;SDS011;42072;48.044;14.416;2023-03-20T10:19:58;6.70;;;5.30;;
38358;SDS011;42072;48.044;14.416;2023-03-20T10:22:35;5.70;;;5.10;;
38358;SDS011;42072;48.044;14.416;2023-03-20T10:27:55;5.95;;;5.13;;
38358;SDS011;42072;48.044;14.416;2023-03-20T10:41:57;5.57;;;4.20;;
38358;SDS011;42072;48.044;14.416;2023-03-20T10:44:30;5.18;;;4.38;;
38358;SDS011;42072;48.044;14.416;2023-03-20T10:47:08;6.63;;;4.75;;
38358;SDS011;42072;48.044;14.416;2023-03-20T10:49:40;5.50;;;4.03;;
38358;SDS011;42072;48.044;14.416;2023-03-20T10:52:21;5.13;;;4.03;;
38358;SDS011;42072;48.044;14.416;2023-03-20T10:55:05;7.40;;;4.18;;
38358;SDS011;42072;48.044;14.416;2023-03-20T10:57:43;6.13;;;4.45;;
38358;SDS011;42072;48.044;14.416;2023-03-20T11:00:17;4.90;;;4.40;;
38358;SDS011;42072;48.044;14.416;2023-03-20T11:02:48;7.93;;;5.47;;
38358;SDS011;42072;48.044;14.416;2023-03-20T11:08:14;5.30;;;3.92;;
38358;SDS011;42072;48.044;14.416;2023-03-20T11:10:42;6.30;;;4.40;;
38358;SDS011;42072;48.044;14.416;2023-03-20T11:13:14;5.07;;;3.50;;
38358;SDS011;42072;48.044;14.416;2023-03-20T11:15:54;4.38;;;3.55;;
38358;SDS011;42072;48.044;14.416;2023-03-20T11:18:24;5.45;;;3.50;;
38358;SDS011;42072;48.044;14.416;2023-03-20T11:20:55;4.88;;;3.63;;
38358;SDS011;42072;48.044;14.416;2023-03-20T11:23:33;7.82;;;3.88;;
38358;SDS011;42072;48.044;14.416;2023-03-20T11:26:10;18.52;;;8.98;;
38358;SDS011;42072;48.044;14.416;2023-03-20T11:28:58;4.97;;;4.03;;
38358;SDS011;42072;48.044;14.416;2023-03-20T11:36:44;4.82;;;4.32;;
38358;SDS011;42072;48.044;14.416;2023-03-20T11:39:35;5.95;;;4.40;;
38358;SDS011;42072;48.044;14.416;2023-03-20T11:42:04;5.28;;;4.70;;
38358;SDS011;42072;48.044;14.416;2023-03-20T11:44:55;6.38;;;4.10;;
38358;SDS011;42072;48.044;14.416;2023-03-20T11:47:25;4.95;;;4.10;;
38358;SDS011;42072;48.044;14.416;2023-03-20T11:49:55;6.03;;;3.67;;
38358;SDS011;42072;48.044;14.416;2023-03-20T11:52:25;4.10;;;3.70;;
38358;SDS011;42072;48.044;14.416;2023-03-20T11:55:02;4.68;;;3.92;;
38358;SDS011;42072;48.044;14.416;2023-03-20T12:02:39;6.82;;;4.25;;
38358;SDS011;42072;48.044;14.416;2023-03-20T12:05:17;6.15;;;4.25;;
38358;SDS011;42072;48.044;14.416;2023-03-20T12:07:51;5.25;;;4.40;;
38358;SDS011;42072;48.044;14.416;2023-03-20T12:10:24;6.55;;;4.68;;
38358;SDS011;42072;48.044;14.416;2023-03-20T12:13:04;5.35;;;4.32;;
38358;SDS011;42072;48.044;14.416;2023-03-20T12:15:40;5.13;;;4.20;;
38358;SDS011;42072;48.044;14.416;2023-03-20T12:24:12;6.00;;;3.65;;
38358;SDS011;42072;48.044;14.416;2023-03-20T12:35:25;4.32;;;3.15;;
38358;SDS011;42072;48.044;14.416;2023-03-20T12:37:55;4.53;;;3.30;;
38358;SDS011;42072;48.044;14.416;2023-03-20T12:40:26;11.05;;;4.28;;
38358;SDS011;42072;48.044;14.416;2023-03-20T12:45:50;5.75;;;4.18;;
38358;SDS011;42072;48.044;14.416;2023-03-20T12:48:45;4.93;;;3.10;;
38358;SDS011;42072;48.044;14.416;2023-03-20T12:51:24;4.93;;;3.28;;
38358;SDS011;42072;48.044;14.416;2023-03-20T12:59:36;4.28;;;3.30;;
38358;SDS011;42072;48.044;14.416;2023-03-20T13:10:23;3.88;;;3.20;;
38358;SDS011;42072;48.044;14.416;2023-03-20T13:18:57;9.07;;;4.30;;
38358;SDS011;42072;48.044;14.416;2023-03-20T13:21:39;5.40;;;3.47;;
38358;SDS011;42072;48.044;14.416;2023-03-20T13:24:21;4.72;;;3.65;;
38358;SDS011;42072;48.044;14.416;2023-03-20T13:26:57;4.22;;;3.47;;
38358;SDS011;42072;48.044;14.416;2023-03-20T13:29:45;5.25;;;3.90;;
38358;SDS011;42072;48.044;14.416;2023-03-20T13:34:52;6.00;;;4.05;;
38358;SDS011;42072;48.044;14.416;2023-03-20T13:40:04;6.15;;;3.72;;
38358;SDS011;42072;48.044;14.416;2023-03-20T13:43:09;6.63;;;4.70;;
38358;SDS011;42072;48.044;14.416;2023-03-20T13:45:46;7.10;;;4.53;;
38358;SDS011;42072;48.044;14.416;2023-03-20T13:54:19;5.85;;;3.95;;
38358;SDS011;42072;48.044;14.416;2023-03-20T13:57:18;5.90;;;4.43;;
38358;SDS011;42072;48.044;14.416;2023-03-20T14:02:53;6.18;;;3.80;;
38358;SDS011;42072;48.044;14.416;2023-03-20T14:05:49;4.40;;;4.00;;
38358;SDS011;42072;48.044;14.416;2023-03-20T14:11:07;7.32;;;4.47;;
38358;SDS011;42072;48.044;14.416;2023-03-20T14:14:07;5.50;;;4.03;;
38358;SDS011;42072;48.044;14.416;2023-03-20T14:16:45;9.18;;;4.40;;
38358;SDS011;42072;48.044;14.416;2023-03-20T14:19:19;5.13;;;4.25;;
38358;SDS011;42072;48.044;14.416;2023-03-20T14:21:52;5.65;;;4.40;;
38358;SDS011;42072;48.044;14.416;2023-03-20T14:24:21;6.32;;;4.57;;
38358;SDS011;42072;48.044;14.416;2023-03-20T14:26:57;5.47;;;4.63;;
38358;SDS011;42072;48.044;14.416;2023-03-20T14:29:36;6.82;;;4.72;;
38358;SDS011;42072;48.044;14.416;2023-03-20T14:32:50;5.25;;;4.50;;
38358;SDS011;42072;48.044;14.416;2023-03-20T14:35:17;5.53;;;4.45;;
38358;SDS011;42072;48.044;14.416;2023-03-20T14:40:27;5.07;;;4.13;;
38358;SDS011;42072;48.044;14.416;2023-03-20T14:42:57;4.28;;;3.85;;
38358;SDS011;42072;48.044;14.416;2023-03-20T14:51:00;8.63;;;4.25;;
38358;SDS011;42072;48.044;14.416;2023-03-20T14:53:31;5.28;;;4.30;;
38358;SDS011;42072;48.044;14.416;2023-03-20T14:56:09;6.95;;;4.10;;
38358;SDS011;42072;48.044;14.416;2023-03-20T15:01:16;4.68;;;4.20;;
38358;SDS011;42072;48.044;14.416;2023-03-20T15:03:47;7.35;;;4.25;;
38358;SDS011;42072;48.044;14.416;2023-03-20T15:06:25;4.20;;;3.70;;
38358;SDS011;42072;48.044;14.416;2023-03-20T15:08:57;6.50;;;4.22;;
38358;SDS011;42072;48.044;14.416;2023-03-20T15:11:33;6.75;;;4.30;;
38358;SDS011;42072;48.044;14.416;2023-03-20T15:14:02;5.68;;;4.32;;
38358;SDS011;42072;48.044;14.416;2023-03-20T15:16:34;5.25;;;4.07;;
38358;SDS011;42072;48.044;14.416;2023-03-20T15:19:05;7.20;;;4.25;;
38358;SDS011;42072;48.044;14.416;2023-03-20T15:21:43;4.07;;;3.67;;
38358;SDS011;42072;48.044;14.416;2023-03-20T15:24:25;6.60;;;3.95;;
38358;SDS011;42072;48.044;14.416;2023-03-20T15:26:55;6.32;;;3.75;;
38358;SDS011;42072;48.044;14.416;2023-03-20T15:29:25;8.55;;;5.88;;
38358;SDS011;42072;48.044;14.416;2023-03-20T15:31:54;9.60;;;6.50;;
38358;SDS011;42072;48.044;14.416;2023-03-20T15:34:39;10.77;;;6.10;;
38358;SDS011;42072;48.044;14.416;2023-03-20T15:37:09;5.65;;;3.65;;
38358;SDS011;42072;48.044;14.416;2023-03-20T15:39:47;4.80;;;4.00;;
38358;SDS011;42072;48.044;14.416;2023-03-20T15:42:20;4.72;;;3.78;;
38358;SDS011;42072;48.044;14.416;2023-03-20T15:44:51;3.95;;;3.38;;
38358;SDS011;42072;48.044;14.416;2023-03-20T15:47:20;6.90;;;3.38;;
38358;SDS011;42072;48.044;14.416;2023-03-20T15:49:59;5.50;;;3.60;;
38358;SDS011;42072;48.044;14.416;2023-03-20T15:55:02;5.60;;;3.90;;
38358;SDS011;42072;48.044;14.416;2023-03-20T15:57:39;4.28;;;3.78;;
38358;SDS011;42072;48.044;14.416;2023-03-20T16:00:14;4.38;;;3.83;;
38358;SDS011;42072;48.044;14.416;2023-03-20T16:02:46;4.97;;;4.25;;
38358;SDS011;42072;48.044;14.416;2023-03-20T16:05:15;6.30;;;3.92;;
38358;SDS011;42072;48.044;14.416;2023-03-20T16:07:43;6.18;;;4.30;;
38358;SDS011;42072;48.044;14.416;2023-03-20T16:10:14;5.32;;;4.10;;
38358;SDS011;42072;48.044;14.416;2023-03-20T16:12:50;6.22;;;4.20;;
38358;SDS011;42072;48.044;14.416;2023-03-20T16:15:23;4.13;;;3.50;;
38358;SDS011;42072;48.044;14.416;2023-03-20T16:17:54;7.53;;;4.30;;
38358;SDS011;42072;48.044;14.416;2023-03-20T16:20:23;5.10;;;4.28;;
38358;SDS011;42072;48.044;14.416;2023-03-20T16:22:54;6.90;;;4.53;;
38358;SDS011;42072;48.044;14.416;2023-03-20T16:25:27;10.05;;;6.25;;
38358;SDS011;42072;48.044;14.416;2023-03-20T16:27:55;9.38;;;5.85;;
38358;SDS011;42072;48.044;14.416;2023-03-20T16:30:24;8.63;;;5.47;;
38358;SDS011;42072;48.044;14.416;2023-03-20T16:33:14;10.25;;;5.88;;
38358;SDS011;42072;48.044;14.416;2023-03-20T16:35:44;7.05;;;5.18;;
38358;SDS011;42072;48.044;14.416;2023-03-20T16:38:25;4.55;;;3.67;;
38358;SDS011;42072;48.044;14.416;2023-03-20T16:40:55;6.38;;;3.65;;
38358;SDS011;42072;48.044;14.416;2023-03-20T16:43:39;7.00;;;4.72;;
38358;SDS011;42072;48.044;14.416;2023-03-20T16:46:06;5.90;;;3.20;;
38358;SDS011;42072;48.044;14.416;2023-03-20T16:48:35;5.07;;;3.92;;
38358;SDS011;42072;48.044;14.416;2023-03-20T16:51:24;4.57;;;2.80;;
38358;SDS011;42072;48.044;14.416;2023-03-20T16:53:55;5.50;;;3.65;;
38358;SDS011;42072;48.044;14.416;2023-03-20T16:56:35;3.88;;;2.85;;
38358;SDS011;42072;48.044;14.416;2023-03-20T16:59:09;4.28;;;2.60;;
38358;SDS011;42072;48.044;14.416;2023-03-20T17:01:44;4.60;;;2.83;;
38358;SDS011;42072;48.044;14.416;2023-03-20T17:04:20;4.03;;;2.88;;
38358;SDS011;42072;48.044;14.416;2023-03-20T17:06:59;5.05;;;3.03;;
38358;SDS011;42072;48.044;14.416;2023-03-20T17:09:31;4.43;;;3.28;;
38358;SDS011;42072;48.044;14.416;2023-03-20T17:12:16;5.60;;;3.20;;
38358;SDS011;42072;48.044;14.416;2023-03-20T17:14:43;5.63;;;3.58;;
38358;SDS011;42072;48.044;14.416;2023-03-20T17:17:12;9.05;;;5.07;;
38358;SDS011;42072;48.044;14.416;2023-03-20T17:19:44;9.23;;;4.40;;
38358;SDS011;42072;48.044;14.416;2023-03-20T17:22:16;16.55;;;8.30;;
38358;SDS011;42072;48.044;14.416;2023-03-20T17:24:47;16.98;;;9.68;;
38358;SDS011;42072;48.044;14.416;2023-03-20T17:27:15;20.77;;;10.93;;
38358;SDS011;42072;48.044;14.416;2023-03-20T17:29:44;22.85;;;10.20;;